Temp: 11.6°C   Baro: 1004.9mb
  Wind: 4.0mph   Dir: W (261°)
  Rain: 7.6mm (0.0mm/hr)
  Solar: 49W/m2  Hum: 91%
 
Bath Spa Weather Historical Data
Daily Summary for November 1, 2019 Units:  Both    English   Metric
Next Day »
Daily Weekly Monthly Yearly Custom
  High: Low: Average:
Temperature: 60.4 °F /  15.8 °C 50.5 °F /  10.3 °C 57 °F /  13.9 °C
Dew Point: 57.6 °F /  14.2 °C 49.1 °F /  9.5 °C 54.9 °F /  12.7 °C
Humidity: 96% 85% 92%
Wind Speed: 12.1mph /  19.5km/h - 4.3mph /  6.9km/h
Wind Gust: 16mph /  25.7km/h - -
Wind direction- - SSW
Pressure: 29.8 in /  1010.4 hPa 29.1 in /  985.7 hPa -
Precipitation: 0.09 in /  2.3 mm    
Historical Graphs
 
 
Tabular Data for November 1, 2019
Time Temperature Dew Point Pressure Wind direction Wind Speed Wind Gust Humidity Rainfall Rate (Hourly) solar
00:00 50.5 °F /  10.3 °C 49.1 °F /  9.5 °C 29.8in /  1010.4hPa ESE 0.9mph /  1.4km/h 3mph /  4.8km/h 95% 0.02in /  0.5mm 0.00 W/m2
00:05 50.5 °F /  10.3 °C 49.1 °F /  9.5 °C 29.8in /  1010.4hPa East 0.9mph /  1.4km/h 3mph /  4.8km/h 95% 0.02in /  0.5mm 0.00 W/m2
00:10 50.5 °F /  10.3 °C 49.1 °F /  9.5 °C 29.8in /  1010.4hPa Calm   3mph /  4.8km/h 95% 0.02in /  0.5mm 0.00 W/m2
00:15 50.5 °F /  10.3 °C 49.1 °F /  9.5 °C 29.8in /  1010.0hPa East 0.9mph /  1.4km/h 2mph /  3.2km/h 95% 0.02in /  0.5mm 0.00 W/m2
00:20 50.5 °F /  10.3 °C 49.1 °F /  9.5 °C 29.8in /  1010.0hPa Calm   2mph /  3.2km/h 95% 0.02in /  0.5mm 0.00 W/m2
00:25 50.5 °F /  10.3 °C 49.1 °F /  9.5 °C 29.8in /  1010.0hPa East 0.9mph /  1.4km/h 5mph /  8.0km/h 95% 0.02in /  0.5mm 0.00 W/m2
00:30 50.7 °F /  10.4 °C 49.3 °F /  9.6 °C 29.8in /  1010.0hPa East 0.9mph /  1.4km/h 4mph /  6.4km/h 95% 0.01in /  0.3mm 0.00 W/m2
00:35 50.7 °F /  10.4 °C 49.3 °F /  9.6 °C 29.8in /  1009.7hPa East 2.9mph /  4.7km/h 3mph /  4.8km/h 95% 0.01in /  0.3mm 0.00 W/m2
00:40 50.7 °F /  10.4 °C 49.3 °F /  9.6 °C 29.8in /  1009.7hPa Calm   2mph /  3.2km/h 95% 0.01in /  0.3mm 0.00 W/m2
00:45 50.7 °F /  10.4 °C 49.3 °F /  9.6 °C 29.8in /  1009.4hPa Calm   2mph /  3.2km/h 95% 0in /  0.0mm 0.00 W/m2
00:50 50.9 °F /  10.5 °C 49.5 °F /  9.7 °C 29.8in /  1009.0hPa ESE 2mph /  3.2km/h 5mph /  8.0km/h 95% 0in /  0.0mm 0.00 W/m2
00:55 50.9 °F /  10.5 °C 49.5 °F /  9.7 °C 29.8in /  1009.0hPa Calm   2mph /  3.2km/h 95% 0.01in /  0.3mm 0.00 W/m2
01:00 51.1 °F /  10.6 °C 49.6 °F /  9.8 °C 29.8in /  1009.0hPa ESE 0.9mph /  1.4km/h 2mph /  3.2km/h 95% 0.01in /  0.3mm 0.00 W/m2
01:05 51.1 °F /  10.6 °C 49.6 °F /  9.8 °C 29.8in /  1008.7hPa Calm   4mph /  6.4km/h 95% 0.01in /  0.3mm 0.00 W/m2
01:10 51.3 °F /  10.7 °C 49.8 °F /  9.9 °C 29.8in /  1008.7hPa ESE 2mph /  3.2km/h 5mph /  8.0km/h 95% 0.01in /  0.3mm 0.00 W/m2
01:15 51.3 °F /  10.7 °C 49.8 °F /  9.9 °C 29.8in /  1008.7hPa ESE 2.9mph /  4.7km/h 5mph /  8.0km/h 95% 0.01in /  0.3mm 0.00 W/m2
01:20 51.4 °F /  10.8 °C 50 °F /  10.0 °C 29.8in /  1008.4hPa SE 2mph /  3.2km/h 6mph /  9.7km/h 95% 0.01in /  0.3mm 0.00 W/m2
01:25 51.6 °F /  10.9 °C 50.2 °F /  10.1 °C 29.8in /  1008.4hPa SE 2.9mph /  4.7km/h 4mph /  6.4km/h 95% 0.01in /  0.3mm 0.00 W/m2
01:30 51.6 °F /  10.9 °C 50.2 °F /  10.1 °C 29.8in /  1008.4hPa ESE 2mph /  3.2km/h 5mph /  8.0km/h 95% 0.01in /  0.3mm 0.00 W/m2
01:35 51.8 °F /  11.0 °C 50.4 °F /  10.2 °C 29.8in /  1008.0hPa SE 2.9mph /  4.7km/h 5mph /  8.0km/h 95% 0.01in /  0.3mm 0.00 W/m2
01:40 51.8 °F /  11.0 °C 50.4 °F /  10.2 °C 29.8in /  1008.0hPa SE 4mph /  6.4km/h 4mph /  6.4km/h 95% 0.01in /  0.3mm 0.00 W/m2
01:45 51.8 °F /  11.0 °C 50.4 °F /  10.2 °C 29.8in /  1008.0hPa SE 2.9mph /  4.7km/h 4mph /  6.4km/h 95% 0.01in /  0.3mm 0.00 W/m2
01:50 52 °F /  11.1 °C 50.9 °F /  10.5 °C 29.8in /  1007.7hPa SE 2mph /  3.2km/h 5mph /  8.0km/h 96% 0.02in /  0.5mm 0.00 W/m2
01:55 52 °F /  11.1 °C 50.9 °F /  10.5 °C 29.8in /  1007.7hPa SE 0.9mph /  1.4km/h 3mph /  4.8km/h 96% 0.02in /  0.5mm 0.00 W/m2
02:00 52.2 °F /  11.2 °C 51.1 °F /  10.6 °C 29.7in /  1007.3hPa SE 4mph /  6.4km/h 6mph /  9.7km/h 96% 0.01in /  0.3mm 0.00 W/m2
02:05 52.3 °F /  11.3 °C 51.3 °F /  10.7 °C 29.7in /  1007.3hPa SE 2mph /  3.2km/h 5mph /  8.0km/h 96% 0.01in /  0.3mm 0.00 W/m2
02:10 52.5 °F /  11.4 °C 51.1 °F /  10.6 °C 29.7in /  1007.0hPa SE 4mph /  6.4km/h 5mph /  8.0km/h 95% 0.01in /  0.3mm 0.00 W/m2
02:15 52.5 °F /  11.4 °C 51.4 °F /  10.8 °C 29.7in /  1006.7hPa ESE 2.9mph /  4.7km/h 6mph /  9.7km/h 96% 0.01in /  0.3mm 0.00 W/m2
02:20 52.7 °F /  11.5 °C 51.6 °F /  10.9 °C 29.7in /  1006.7hPa ESE 8.1mph /  13.0km/h 8mph /  12.9km/h 96% 0.01in /  0.3mm 0.00 W/m2
02:25 52.9 °F /  11.6 °C 51.8 °F /  11.0 °C 29.7in /  1006.3hPa SE 2mph /  3.2km/h 7mph /  11.3km/h 96% 0.01in /  0.3mm 0.00 W/m2
02:30 53.1 °F /  11.7 °C 52 °F /  11.1 °C 29.7in /  1006.3hPa SE 2.9mph /  4.7km/h 6mph /  9.7km/h 96% 0.01in /  0.3mm 0.00 W/m2
02:35 53.1 °F /  11.7 °C 52 °F /  11.1 °C 29.7in /  1006.3hPa SE 2mph /  3.2km/h 5mph /  8.0km/h 96% 0.01in /  0.3mm 0.00 W/m2
02:40 53.1 °F /  11.7 °C 52 °F /  11.1 °C 29.7in /  1006.0hPa ESE 4.9mph /  7.9km/h 7mph /  11.3km/h 96% 0.01in /  0.3mm 0.00 W/m2
02:45 53.2 °F /  11.8 °C 52.2 °F /  11.2 °C 29.7in /  1005.6hPa ESE 2.9mph /  4.7km/h 4mph /  6.4km/h 96% 0.01in /  0.3mm 0.00 W/m2
02:50 53.4 °F /  11.9 °C 52.3 °F /  11.3 °C 29.7in /  1005.6hPa ESE 0.9mph /  1.4km/h 8mph /  12.9km/h 96% 0in /  0.0mm 0.00 W/m2
02:55 53.6 °F /  12.0 °C 52.5 °F /  11.4 °C 29.7in /  1005.3hPa ESE 4mph /  6.4km/h 5mph /  8.0km/h 96% 0in /  0.0mm 0.00 W/m2
03:00 53.6 °F /  12.0 °C 52.5 °F /  11.4 °C 29.7in /  1005.3hPa SE 4.9mph /  7.9km/h 9mph /  14.5km/h 96% 0in /  0.0mm 0.00 W/m2
03:05 53.8 °F /  12.1 °C 52.7 °F /  11.5 °C 29.7in /  1005.3hPa ESE 4.9mph /  7.9km/h 5mph /  8.0km/h 96% 0in /  0.0mm 0.00 W/m2
03:10 53.8 °F /  12.1 °C 52.7 °F /  11.5 °C 29.7in /  1005.0hPa SE 4mph /  6.4km/h 5mph /  8.0km/h 96% 0in /  0.0mm 0.00 W/m2
03:15 53.8 °F /  12.1 °C 52.7 °F /  11.5 °C 29.7in /  1005.0hPa SE 2.9mph /  4.7km/h 6mph /  9.7km/h 96% 0in /  0.0mm 0.00 W/m2
03:20 53.8 °F /  12.1 °C 52.7 °F /  11.5 °C 29.7in /  1005.0hPa SE 2mph /  3.2km/h 6mph /  9.7km/h 96% 0in /  0.0mm 0.00 W/m2
03:25 54 °F /  12.2 °C 52.9 °F /  11.6 °C 29.7in /  1005.0hPa SE 2mph /  3.2km/h 5mph /  8.0km/h 96% 0in /  0.0mm 0.00 W/m2
03:30 54 °F /  12.2 °C 52.9 °F /  11.6 °C 29.7in /  1004.6hPa Calm   4mph /  6.4km/h 96% 0in /  0.0mm 0.00 W/m2
03:35 54 °F /  12.2 °C 52.9 °F /  11.6 °C 29.7in /  1004.6hPa Calm   4mph /  6.4km/h 96% 0in /  0.0mm 0.00 W/m2
03:40 54 °F /  12.2 °C 52.9 °F /  11.6 °C 29.7in /  1004.6hPa SE 2mph /  3.2km/h 6mph /  9.7km/h 96% 0.01in /  0.3mm 0.00 W/m2
03:45 54.1 °F /  12.3 °C 53.1 °F /  11.7 °C 29.7in /  1004.3hPa East 2mph /  3.2km/h 4mph /  6.4km/h 96% 0.01in /  0.3mm 0.00 W/m2
03:50 54 °F /  12.2 °C 52.9 °F /  11.6 °C 29.7in /  1004.3hPa East 4.9mph /  7.9km/h 5mph /  8.0km/h 96% 0.01in /  0.3mm 0.00 W/m2
03:55 54.1 °F /  12.3 °C 53.1 °F /  11.7 °C 29.6in /  1003.9hPa ESE 2mph /  3.2km/h 5mph /  8.0km/h 96% 0.01in /  0.3mm 0.00 W/m2
04:00 54.1 °F /  12.3 °C 53.1 °F /  11.7 °C 29.6in /  1003.9hPa ESE 2mph /  3.2km/h 7mph /  11.3km/h 96% 0.01in /  0.3mm 0.00 W/m2
04:05 54.1 °F /  12.3 °C 53.1 °F /  11.7 °C 29.6in /  1003.9hPa SE 6mph /  9.7km/h 8mph /  12.9km/h 96% 0.01in /  0.3mm 0.00 W/m2
04:10 54.3 °F /  12.4 °C 53.2 °F /  11.8 °C 29.6in /  1003.9hPa SE 2mph /  3.2km/h 3mph /  4.8km/h 96% 0.01in /  0.3mm 0.00 W/m2
04:15 54.3 °F /  12.4 °C 53.2 °F /  11.8 °C 29.6in /  1003.6hPa Calm   7mph /  11.3km/h 96% 0.01in /  0.3mm 0.00 W/m2
04:20 54.7 °F /  12.6 °C 53.6 °F /  12.0 °C 29.6in /  1003.6hPa SSE 4mph /  6.4km/h 7mph /  11.3km/h 96% 0.01in /  0.3mm 0.00 W/m2
04:25 54.7 °F /  12.6 °C 53.6 °F /  12.0 °C 29.6in /  1003.6hPa South 6.9mph /  11.1km/h 10mph /  16.1km/h 96% 0.01in /  0.3mm 0.00 W/m2
04:30 54.9 °F /  12.7 °C 53.8 °F /  12.1 °C 29.6in /  1003.3hPa South 8.1mph /  13.0km/h 8mph /  12.9km/h 96% 0.01in /  0.3mm 0.00 W/m2
04:35 55 °F /  12.8 °C 54 °F /  12.2 °C 29.6in /  1003.3hPa SSE 4mph /  6.4km/h 14mph /  22.5km/h 96% 0.01in /  0.3mm 0.00 W/m2
04:40 55 °F /  12.8 °C 54 °F /  12.2 °C 29.6in /  1002.9hPa SE 8.1mph /  13.0km/h 8mph /  12.9km/h 96% 0in /  0.0mm 0.00 W/m2
04:45 55.2 °F /  12.9 °C 54.1 °F /  12.3 °C 29.6in /  1002.9hPa South 4.9mph /  7.9km/h 9mph /  14.5km/h 96% 0in /  0.0mm 0.00 W/m2
04:50 55.2 °F /  12.9 °C 54.1 °F /  12.3 °C 29.6in /  1002.9hPa SSE 4.9mph /  7.9km/h 8mph /  12.9km/h 96% 0in /  0.0mm 0.00 W/m2
04:55 55.2 °F /  12.9 °C 54.1 °F /  12.3 °C 29.6in /  1002.9hPa South 4.9mph /  7.9km/h 6mph /  9.7km/h 96% 0in /  0.0mm 0.00 W/m2
05:00 55.2 °F /  12.9 °C 54.1 °F /  12.3 °C 29.6in /  1002.6hPa South 4.9mph /  7.9km/h 10mph /  16.1km/h 96% 0in /  0.0mm 0.00 W/m2
05:05 55.4 °F /  13.0 °C 54.3 °F /  12.4 °C 29.6in /  1002.6hPa SSE 10.1mph /  16.3km/h 15mph /  24.1km/h 96% 0in /  0.0mm 0.00 W/m2
05:10 55.4 °F /  13.0 °C 54.3 °F /  12.4 °C 29.6in /  1002.3hPa SSW 11mph /  17.7km/h 11mph /  17.7km/h 96% 0in /  0.0mm 0.00 W/m2
05:15 55.6 °F /  13.1 °C 54.5 °F /  12.5 °C 29.6in /  1002.3hPa South 4mph /  6.4km/h 9mph /  14.5km/h 96% 0in /  0.0mm 0.00 W/m2
05:20 55.6 °F /  13.1 °C 54.5 °F /  12.5 °C 29.6in /  1002.3hPa SE 2.9mph /  4.7km/h 15mph /  24.1km/h 96% 0in /  0.0mm 0.00 W/m2
05:25 55.6 °F /  13.1 °C 54.5 °F /  12.5 °C 29.6in /  1002.3hPa SSW 6mph /  9.7km/h 9mph /  14.5km/h 96% 0in /  0.0mm 0.00 W/m2
05:30 55.6 °F /  13.1 °C 54.1 °F /  12.3 °C 29.6in /  1001.9hPa South 4.9mph /  7.9km/h 7mph /  11.3km/h 95% 0in /  0.0mm 0.00 W/m2
05:35 55.6 °F /  13.1 °C 54.1 °F /  12.3 °C 29.6in /  1001.9hPa SSE 4.9mph /  7.9km/h 9mph /  14.5km/h 95% 0in /  0.0mm 0.00 W/m2
05:40 55.8 °F /  13.2 °C 54.3 °F /  12.4 °C 29.6in /  1001.9hPa South 11mph /  17.7km/h 15mph /  24.1km/h 95% 0in /  0.0mm 0.00 W/m2
05:45 55.8 °F /  13.2 °C 54.3 °F /  12.4 °C 29.6in /  1001.9hPa South 4.9mph /  7.9km/h 11mph /  17.7km/h 95% 0in /  0.0mm 0.00 W/m2
05:50 55.8 °F /  13.2 °C 54.3 °F /  12.4 °C 29.6in /  1001.9hPa SSE 0.9mph /  1.4km/h 7mph /  11.3km/h 95% 0in /  0.0mm 0.00 W/m2
05:55 55.8 °F /  13.2 °C 54.3 °F /  12.4 °C 29.6in /  1001.9hPa South 2.9mph /  4.7km/h 10mph /  16.1km/h 95% 0in /  0.0mm 0.00 W/m2
06:00 55.8 °F /  13.2 °C 54.3 °F /  12.4 °C 29.6in /  1001.9hPa SSW 2.9mph /  4.7km/h 9mph /  14.5km/h 95% 0in /  0.0mm 0.00 W/m2
06:05 55.8 °F /  13.2 °C 54.1 °F /  12.3 °C 29.6in /  1001.6hPa SSW 6.9mph /  11.1km/h 12mph /  19.3km/h 94% 0in /  0.0mm 0.00 W/m2
06:10 55.8 °F /  13.2 °C 54.3 °F /  12.4 °C 29.6in /  1001.6hPa South 8.1mph /  13.0km/h 9mph /  14.5km/h 95% 0in /  0.0mm 0.00 W/m2
06:15 55.9 °F /  13.3 °C 54.5 °F /  12.5 °C 29.6in /  1001.6hPa South 4mph /  6.4km/h 13mph /  20.9km/h 95% 0in /  0.0mm 0.00 W/m2
06:20 55.9 °F /  13.3 °C 54.5 °F /  12.5 °C 29.6in /  1001.6hPa South 6mph /  9.7km/h 8mph /  12.9km/h 95% 0in /  0.0mm 0.00 W/m2
06:25 55.9 °F /  13.3 °C 54.5 °F /  12.5 °C 29.6in /  1001.6hPa South 4.9mph /  7.9km/h 8mph /  12.9km/h 95% 0in /  0.0mm 0.00 W/m2
06:30 55.9 °F /  13.3 °C 54.5 °F /  12.5 °C 29.6in /  1001.2hPa South 6mph /  9.7km/h 9mph /  14.5km/h 95% 0in /  0.0mm 0.00 W/m2
06:35 55.9 °F /  13.3 °C 54.5 °F /  12.5 °C 29.6in /  1001.2hPa SSW 2mph /  3.2km/h 11mph /  17.7km/h 95% 0in /  0.0mm 0.00 W/m2
06:40 55.9 °F /  13.3 °C 54.5 °F /  12.5 °C 29.6in /  1001.2hPa South 2mph /  3.2km/h 7mph /  11.3km/h 95% 0in /  0.0mm 0.00 W/m2
06:45 56.1 °F /  13.4 °C 54.7 °F /  12.6 °C 29.6in /  1001.2hPa South 2mph /  3.2km/h 8mph /  12.9km/h 95% 0in /  0.0mm 0.00 W/m2
06:50 56.1 °F /  13.4 °C 54.7 °F /  12.6 °C 29.6in /  1001.2hPa South 4mph /  6.4km/h 9mph /  14.5km/h 95% 0in /  0.0mm 0.00 W/m2
06:55 56.1 °F /  13.4 °C 54.7 °F /  12.6 °C 29.6in /  1001.2hPa South 6.9mph /  11.1km/h 8mph /  12.9km/h 95% 0in /  0.0mm 0.00 W/m2
07:00 56.1 °F /  13.4 °C 54.5 °F /  12.5 °C 29.6in /  1000.9hPa South 8.1mph /  13.0km/h 8mph /  12.9km/h 94% 0in /  0.0mm 0.00 W/m2
07:05 56.1 °F /  13.4 °C 54.5 °F /  12.5 °C 29.6in /  1000.9hPa South 4.9mph /  7.9km/h 8mph /  12.9km/h 94% 0in /  0.0mm 0.00 W/m2
07:10 56.3 °F /  13.5 °C 54.9 °F /  12.7 °C 29.6in /  1000.9hPa South 4mph /  6.4km/h 11mph /  17.7km/h 95% 0in /  0.0mm 0.00 W/m2
07:15 56.3 °F /  13.5 °C 54.7 °F /  12.6 °C 29.6in /  1000.6hPa SSW 8.1mph /  13.0km/h 8mph /  12.9km/h 94% 0in /  0.0mm 0.00 W/m2
07:20 56.3 °F /  13.5 °C 54.7 °F /  12.6 °C 29.6in /  1000.6hPa SSW 2.9mph /  4.7km/h 7mph /  11.3km/h 94% 0in /  0.0mm 0.00 W/m2
07:25 56.3 °F /  13.5 °C 54.9 °F /  12.7 °C 29.6in /  1000.9hPa SW 2mph /  3.2km/h 5mph /  8.0km/h 95% 0in /  0.0mm 5.00 W/m2
07:30 56.5 °F /  13.6 °C 54.9 °F /  12.7 °C 29.6in /  1000.6hPa SW 2mph /  3.2km/h 3mph /  4.8km/h 94% 0in /  0.0mm 5.00 W/m2
07:35 56.5 °F /  13.6 °C 55 °F /  12.8 °C 29.6in /  1000.6hPa WSW 2.9mph /  4.7km/h 6mph /  9.7km/h 95% 0in /  0.0mm 7.00 W/m2
07:40 56.5 °F /  13.6 °C 55 °F /  12.8 °C 29.5in /  1000.2hPa WSW 4mph /  6.4km/h 6mph /  9.7km/h 95% 0in /  0.0mm 18.00 W/m2
07:45 56.5 °F /  13.6 °C 55 °F /  12.8 °C 29.5in /  1000.2hPa Calm   2mph /  3.2km/h 95% 0in /  0.0mm 35.00 W/m2
07:50 56.5 °F /  13.6 °C 55 °F /  12.8 °C 29.5in /  1000.2hPa SSW 4.9mph /  7.9km/h 7mph /  11.3km/h 95% 0in /  0.0mm 44.00 W/m2
07:55 56.7 °F /  13.7 °C 55.2 °F /  12.9 °C 29.5in /  1000.2hPa WSW 2mph /  3.2km/h 8mph /  12.9km/h 95% 0in /  0.0mm 47.00 W/m2
08:00 56.7 °F /  13.7 °C 55.2 °F /  12.9 °C 29.5in /  1000.2hPa SSW 6.9mph /  11.1km/h 7mph /  11.3km/h 95% 0in /  0.0mm 51.00 W/m2
08:05 56.7 °F /  13.7 °C 55.2 °F /  12.9 °C 29.5in /  1000.2hPa SSW 2mph /  3.2km/h 8mph /  12.9km/h 95% 0in /  0.0mm 47.00 W/m2
08:10 56.8 °F /  13.8 °C 55.4 °F /  13.0 °C 29.5in /  999.9hPa South 4.9mph /  7.9km/h 6mph /  9.7km/h 95% 0in /  0.0mm 53.00 W/m2
08:15 56.8 °F /  13.8 °C 55.4 °F /  13.0 °C 29.5in /  999.9hPa SSW 4.9mph /  7.9km/h 10mph /  16.1km/h 95% 0in /  0.0mm 56.00 W/m2
08:20 57 °F /  13.9 °C 55.6 °F /  13.1 °C 29.5in /  999.9hPa SSW 2.9mph /  4.7km/h 8mph /  12.9km/h 95% 0in /  0.0mm 56.00 W/m2
08:25 57 °F /  13.9 °C 55.6 °F /  13.1 °C 29.5in /  999.9hPa South 6.9mph /  11.1km/h 8mph /  12.9km/h 95% 0in /  0.0mm 62.00 W/m2
08:30 57 °F /  13.9 °C 55.6 °F /  13.1 °C 29.5in /  999.9hPa SSW 2.9mph /  4.7km/h 7mph /  11.3km/h 95% 0in /  0.0mm 60.00 W/m2
08:35 57 °F /  13.9 °C 55.6 °F /  13.1 °C 29.5in /  999.9hPa SSW 4.9mph /  7.9km/h 8mph /  12.9km/h 95% 0in /  0.0mm 60.00 W/m2
08:40 57.2 °F /  14.0 °C 55.8 °F /  13.2 °C 29.5in /  999.5hPa SSW 2.9mph /  4.7km/h 4mph /  6.4km/h 95% 0in /  0.0mm 97.00 W/m2
08:45 57.4 °F /  14.1 °C 55.9 °F /  13.3 °C 29.5in /  999.5hPa SSW 4mph /  6.4km/h 4mph /  6.4km/h 95% 0in /  0.0mm 93.00 W/m2
08:50 57.4 °F /  14.1 °C 55.9 °F /  13.3 °C 29.5in /  999.5hPa SSW 2mph /  3.2km/h 4mph /  6.4km/h 95% 0in /  0.0mm 81.00 W/m2
08:55 57.6 °F /  14.2 °C 56.1 °F /  13.4 °C 29.5in /  999.5hPa SSW 2.9mph /  4.7km/h 4mph /  6.4km/h 95% 0in /  0.0mm 111.00 W/m2
09:00 57.7 °F /  14.3 °C 56.3 °F /  13.5 °C 29.5in /  999.5hPa SW 2.9mph /  4.7km/h 5mph /  8.0km/h 95% 0in /  0.0mm 105.00 W/m2
09:05 57.7 °F /  14.3 °C 56.3 °F /  13.5 °C 29.5in /  999.2hPa Calm   8mph /  12.9km/h 95% 0in /  0.0mm 100.00 W/m2
09:10 57.9 °F /  14.4 °C 56.5 °F /  13.6 °C 29.5in /  999.2hPa SW 2.9mph /  4.7km/h 6mph /  9.7km/h 95% 0in /  0.0mm 81.00 W/m2
09:15 57.9 °F /  14.4 °C 56.5 °F /  13.6 °C 29.5in /  999.2hPa SW 2mph /  3.2km/h 5mph /  8.0km/h 95% 0in /  0.0mm 60.00 W/m2
09:20 58.1 °F /  14.5 °C 56.7 °F /  13.7 °C 29.5in /  999.2hPa SW 2.9mph /  4.7km/h 4mph /  6.4km/h 95% 0in /  0.0mm 63.00 W/m2
09:25 58.1 °F /  14.5 °C 56.7 °F /  13.7 °C 29.5in /  999.2hPa SW 2mph /  3.2km/h 5mph /  8.0km/h 95% 0in /  0.0mm 60.00 W/m2
09:30 58.3 °F /  14.6 °C 56.8 °F /  13.8 °C 29.5in /  999.2hPa WSW 4.9mph /  7.9km/h 7mph /  11.3km/h 95% 0in /  0.0mm 93.00 W/m2
09:35 58.3 °F /  14.6 °C 56.8 °F /  13.8 °C 29.5in /  999.2hPa WSW 4mph /  6.4km/h 6mph /  9.7km/h 95% 0in /  0.0mm 90.00 W/m2
09:40 58.3 °F /  14.6 °C 56.8 °F /  13.8 °C 29.5in /  998.9hPa SW 2.9mph /  4.7km/h 9mph /  14.5km/h 95% 0in /  0.0mm 97.00 W/m2
09:45 58.3 °F /  14.6 °C 56.5 °F /  13.6 °C 29.5in /  998.9hPa WSW 8.1mph /  13.0km/h 9mph /  14.5km/h 94% 0in /  0.0mm 151.00 W/m2
09:50 58.5 °F /  14.7 °C 56.7 °F /  13.7 °C 29.5in /  998.9hPa SW 0.9mph /  1.4km/h 9mph /  14.5km/h 94% 0in /  0.0mm 172.00 W/m2
09:55 58.6 °F /  14.8 °C 56.8 °F /  13.8 °C 29.5in /  998.5hPa SW 4mph /  6.4km/h 7mph /  11.3km/h 94% 0in /  0.0mm 193.00 W/m2
10:00 58.8 °F /  14.9 °C 57 °F /  13.9 °C 29.5in /  998.5hPa WSW 4mph /  6.4km/h 9mph /  14.5km/h 94% 0in /  0.0mm 227.00 W/m2
10:05 59.2 °F /  15.1 °C 57.4 °F /  14.1 °C 29.5in /  998.5hPa WSW 2.9mph /  4.7km/h 8mph /  12.9km/h 94% 0in /  0.0mm 192.00 W/m2
10:10 59.2 °F /  15.1 °C 57.2 °F /  14.0 °C 29.5in /  998.5hPa SW 6.9mph /  11.1km/h 8mph /  12.9km/h 93% 0in /  0.0mm 204.00 W/m2
10:15 59.4 °F /  15.2 °C 57.4 °F /  14.1 °C 29.5in /  998.2hPa SW 6mph /  9.7km/h 8mph /  12.9km/h 93% 0in /  0.0mm 248.00 W/m2
10:20 59.4 °F /  15.2 °C 57 °F /  13.9 °C 29.5in /  998.2hPa West 6.9mph /  11.1km/h 10mph /  16.1km/h 92% 0in /  0.0mm 171.00 W/m2
10:25 59.5 °F /  15.3 °C 57.2 °F /  14.0 °C 29.5in /  998.2hPa West 4mph /  6.4km/h 8mph /  12.9km/h 92% 0in /  0.0mm 121.00 W/m2
10:30 59.4 °F /  15.2 °C 56.7 °F /  13.7 °C 29.5in /  998.2hPa WSW 4mph /  6.4km/h 13mph /  20.9km/h 91% 0in /  0.0mm 88.00 W/m2
10:35 59.2 °F /  15.1 °C 56.3 °F /  13.5 °C 29.5in /  998.2hPa SW 4.9mph /  7.9km/h 8mph /  12.9km/h 90% 0in /  0.0mm 102.00 W/m2
10:40 58.6 °F /  14.8 °C 55.8 °F /  13.2 °C 29.5in /  998.5hPa SW 8.9mph /  14.3km/h 13mph /  20.9km/h 90% 0in /  0.0mm 100.00 W/m2
10:45 58.6 °F /  14.8 °C 55.4 °F /  13.0 °C 29.5in /  998.2hPa SW 4.9mph /  7.9km/h 7mph /  11.3km/h 89% 0in /  0.0mm 120.00 W/m2
10:50 58.6 °F /  14.8 °C 55.4 °F /  13.0 °C 29.5in /  998.2hPa SW 6.9mph /  11.1km/h 10mph /  16.1km/h 89% 0in /  0.0mm 121.00 W/m2
10:55 58.6 °F /  14.8 °C 55.4 °F /  13.0 °C 29.5in /  998.2hPa SW 10.1mph /  16.3km/h 10mph /  16.1km/h 89% 0in /  0.0mm 114.00 W/m2
11:00 58.5 °F /  14.7 °C 55.2 °F /  12.9 °C 29.5in /  998.2hPa SW 6.9mph /  11.1km/h 8mph /  12.9km/h 89% 0in /  0.0mm 53.00 W/m2
11:05 58.3 °F /  14.6 °C 55 °F /  12.8 °C 29.5in /  998.2hPa WSW 8.9mph /  14.3km/h 10mph /  16.1km/h 89% 0in /  0.0mm 69.00 W/m2
11:10 58.1 °F /  14.5 °C 54.9 °F /  12.7 °C 29.5in /  997.9hPa WSW 6mph /  9.7km/h 7mph /  11.3km/h 89% 0in /  0.0mm 98.00 W/m2
11:15 57.9 °F /  14.4 °C 54.7 °F /  12.6 °C 29.5in /  997.9hPa WSW 4mph /  6.4km/h 10mph /  16.1km/h 89% 0in /  0.0mm 134.00 W/m2
11:20 57.9 °F /  14.4 °C 54.7 °F /  12.6 °C 29.5in /  997.9hPa WSW 6mph /  9.7km/h 10mph /  16.1km/h 89% 0in /  0.0mm 100.00 W/m2
11:25 57.9 °F /  14.4 °C 54.7 °F /  12.6 °C 29.5in /  997.9hPa WSW 6.9mph /  11.1km/h 9mph /  14.5km/h 89% 0in /  0.0mm 77.00 W/m2
11:30 57.9 °F /  14.4 °C 54.7 °F /  12.6 °C 29.5in /  997.5hPa West 6.9mph /  11.1km/h 9mph /  14.5km/h 89% 0in /  0.0mm 84.00 W/m2
11:35 57.9 °F /  14.4 °C 54.7 °F /  12.6 °C 29.5in /  997.5hPa WSW 4mph /  6.4km/h 5mph /  8.0km/h 89% 0in /  0.0mm 105.00 W/m2
11:40 57.9 °F /  14.4 °C 54.7 °F /  12.6 °C 29.5in /  997.5hPa SW 4mph /  6.4km/h 7mph /  11.3km/h 89% 0in /  0.0mm 118.00 W/m2
11:45 57.9 °F /  14.4 °C 54.7 °F /  12.6 °C 29.5in /  997.2hPa West 6mph /  9.7km/h 8mph /  12.9km/h 89% 0in /  0.0mm 139.00 W/m2
11:50 57.9 °F /  14.4 °C 54.7 °F /  12.6 °C 29.5in /  997.2hPa WNW 4mph /  6.4km/h 8mph /  12.9km/h 89% 0in /  0.0mm 151.00 W/m2
11:55 58.3 °F /  14.6 °C 54.7 °F /  12.6 °C 29.5in /  997.2hPa West 2.9mph /  4.7km/h 7mph /  11.3km/h 88% 0in /  0.0mm 397.00 W/m2
12:00 58.5 °F /  14.7 °C 54.9 °F /  12.7 °C 29.4in /  996.8hPa WSW 4.9mph /  7.9km/h 11mph /  17.7km/h 88% 0in /  0.0mm 285.00 W/m2
12:05 59 °F /  15.0 °C 55.4 °F /  13.0 °C 29.4in /  996.8hPa SSW 8.9mph /  14.3km/h 10mph /  16.1km/h 88% 0in /  0.0mm 230.00 W/m2
12:10 58.6 °F /  14.8 °C 54.9 °F /  12.7 °C 29.4in /  996.8hPa WSW 6mph /  9.7km/h 13mph /  20.9km/h 87% 0in /  0.0mm 195.00 W/m2
12:15 58.6 °F /  14.8 °C 54.9 °F /  12.7 °C 29.4in /  996.8hPa WSW 2.9mph /  4.7km/h 10mph /  16.1km/h 87% 0in /  0.0mm 257.00 W/m2
12:20 58.8 °F /  14.9 °C 55 °F /  12.8 °C 29.4in /  996.8hPa SW 6.9mph /  11.1km/h 8mph /  12.9km/h 87% 0in /  0.0mm 149.00 W/m2
12:25 58.8 °F /  14.9 °C 55 °F /  12.8 °C 29.4in /  996.8hPa West 2mph /  3.2km/h 7mph /  11.3km/h 87% 0in /  0.0mm 128.00 W/m2
12:30 58.8 °F /  14.9 °C 55 °F /  12.8 °C 29.4in /  996.8hPa West 4.9mph /  7.9km/h 7mph /  11.3km/h 87% 0in /  0.0mm 183.00 W/m2
12:35 58.8 °F /  14.9 °C 55 °F /  12.8 °C 29.4in /  996.8hPa West 2mph /  3.2km/h 6mph /  9.7km/h 87% 0in /  0.0mm 102.00 W/m2
12:40 58.8 °F /  14.9 °C 55 °F /  12.8 °C 29.4in /  996.5hPa West 4mph /  6.4km/h 12mph /  19.3km/h 87% 0in /  0.0mm 98.00 W/m2
12:45 58.8 °F /  14.9 °C 55 °F /  12.8 °C 29.4in /  996.5hPa West 4.9mph /  7.9km/h 9mph /  14.5km/h 87% 0in /  0.0mm 95.00 W/m2
12:50 58.8 °F /  14.9 °C 55 °F /  12.8 °C 29.4in /  996.5hPa WSW 6.9mph /  11.1km/h 8mph /  12.9km/h 87% 0in /  0.0mm 176.00 W/m2
12:55 59 °F /  15.0 °C 55.2 °F /  12.9 °C 29.4in /  996.2hPa WSW 8.1mph /  13.0km/h 12mph /  19.3km/h 87% 0in /  0.0mm 211.00 W/m2
13:00 59.2 °F /  15.1 °C 55.4 °F /  13.0 °C 29.4in /  996.2hPa WSW 6mph /  9.7km/h 11mph /  17.7km/h 87% 0in /  0.0mm 167.00 W/m2
13:05 59.2 °F /  15.1 °C 55.4 °F /  13.0 °C 29.4in /  995.8hPa WSW 8.1mph /  13.0km/h 9mph /  14.5km/h 87% 0in /  0.0mm 105.00 W/m2
13:10 59.2 °F /  15.1 °C 55.4 °F /  13.0 °C 29.4in /  995.8hPa SW 2.9mph /  4.7km/h 6mph /  9.7km/h 87% 0in /  0.0mm 104.00 W/m2
13:15 59.2 °F /  15.1 °C 55.4 °F /  13.0 °C 29.4in /  995.8hPa WSW 0.9mph /  1.4km/h 8mph /  12.9km/h 87% 0in /  0.0mm 123.00 W/m2
13:20 59.2 °F /  15.1 °C 55.4 °F /  13.0 °C 29.4in /  995.5hPa SW 0.9mph /  1.4km/h 7mph /  11.3km/h 87% 0in /  0.0mm 46.00 W/m2
13:25 59 °F /  15.0 °C 55.2 °F /  12.9 °C 29.4in /  995.5hPa SSW 6.9mph /  11.1km/h 12mph /  19.3km/h 87% 0in /  0.0mm 35.00 W/m2
13:30 58.8 °F /  14.9 °C 55 °F /  12.8 °C 29.4in /  995.1hPa WSW 4mph /  6.4km/h 8mph /  12.9km/h 87% 0in /  0.0mm 62.00 W/m2
13:35 58.8 °F /  14.9 °C 55 °F /  12.8 °C 29.4in /  995.1hPa WSW 2mph /  3.2km/h 7mph /  11.3km/h 87% 0in /  0.0mm 86.00 W/m2
13:40 59.2 °F /  15.1 °C 55.4 °F /  13.0 °C 29.4in /  995.1hPa West 2mph /  3.2km/h 5mph /  8.0km/h 87% 0in /  0.0mm 223.00 W/m2
13:45 60.1 °F /  15.6 °C 56.1 °F /  13.4 °C 29.4in /  995.1hPa West 2mph /  3.2km/h 4mph /  6.4km/h 87% 0in /  0.0mm 207.00 W/m2
13:50 60.4 °F /  15.8 °C 56.3 °F /  13.5 °C 29.4in /  994.8hPa West 2.9mph /  4.7km/h 5mph /  8.0km/h 86% 0in /  0.0mm 134.00 W/m2
13:55 60.3 °F /  15.7 °C 55.8 °F /  13.2 °C 29.4in /  994.8hPa WSW 2.9mph /  4.7km/h 7mph /  11.3km/h 85% 0in /  0.0mm 100.00 W/m2
14:00 60.1 °F /  15.6 °C 55.6 °F /  13.1 °C 29.4in /  994.5hPa Calm   4mph /  6.4km/h 85% 0in /  0.0mm 120.00 W/m2
14:05 60.3 °F /  15.7 °C 56.1 °F /  13.4 °C 29.4in /  994.5hPa WSW 0.9mph /  1.4km/h 6mph /  9.7km/h 86% 0in /  0.0mm 121.00 W/m2
14:10 60.1 °F /  15.6 °C 55.6 °F /  13.1 °C 29.4in /  994.5hPa WSW 4mph /  6.4km/h 7mph /  11.3km/h 85% 0in /  0.0mm 109.00 W/m2
14:15 60.1 °F /  15.6 °C 55.6 °F /  13.1 °C 29.4in /  994.1hPa WSW 0.9mph /  1.4km/h 4mph /  6.4km/h 85% 0in /  0.0mm 90.00 W/m2
14:20 60.1 °F /  15.6 °C 55.6 °F /  13.1 °C 29.4in /  994.1hPa SW 4.9mph /  7.9km/h 9mph /  14.5km/h 85% 0in /  0.0mm 113.00 W/m2
14:25 60.1 °F /  15.6 °C 55.6 °F /  13.1 °C 29.4in /  993.8hPa Calm   6mph /  9.7km/h 85% 0in /  0.0mm 195.00 W/m2
14:30 60.3 °F /  15.7 °C 55.8 °F /  13.2 °C 29.4in /  993.8hPa WSW 8.1mph /  13.0km/h 8mph /  12.9km/h 85% 0in /  0.0mm 111.00 W/m2
14:35 60.1 °F /  15.6 °C 55.6 °F /  13.1 °C 29.4in /  993.8hPa SSW 6mph /  9.7km/h 7mph /  11.3km/h 85% 0in /  0.0mm 91.00 W/m2
14:40 59.7 °F /  15.4 °C 55.6 °F /  13.1 °C 29.4in /  993.8hPa SW 10.1mph /  16.3km/h 12mph /  19.3km/h 86% 0in /  0.0mm 83.00 W/m2
14:45 59.7 °F /  15.4 °C 55.6 °F /  13.1 °C 29.4in /  993.8hPa South 2.9mph /  4.7km/h 6mph /  9.7km/h 86% 0in /  0.0mm 54.00 W/m2
14:50 59.5 °F /  15.3 °C 55.6 °F /  13.1 °C 29.4in /  993.8hPa SSW 4.9mph /  7.9km/h 7mph /  11.3km/h 87% 0in /  0.0mm 44.00 W/m2
14:55 59.4 °F /  15.2 °C 55.4 °F /  13.0 °C 29.3in /  993.5hPa SW 4mph /  6.4km/h 13mph /  20.9km/h 87% 0in /  0.0mm 42.00 W/m2
15:00 59.4 °F /  15.2 °C 55.8 °F /  13.2 °C 29.3in /  993.5hPa SSW 6.9mph /  11.1km/h 10mph /  16.1km/h 88% 0in /  0.0mm 49.00 W/m2
15:05 59.4 °F /  15.2 °C 55.8 °F /  13.2 °C 29.3in /  993.5hPa SW 2.9mph /  4.7km/h 4mph /  6.4km/h 88% 0in /  0.0mm 35.00 W/m2
15:10 59.2 °F /  15.1 °C 55.6 °F /  13.1 °C 29.3in /  993.1hPa SSW 2.9mph /  4.7km/h 5mph /  8.0km/h 88% 0in /  0.0mm 32.00 W/m2
15:15 59.2 °F /  15.1 °C 55.6 °F /  13.1 °C 29.3in /  993.1hPa SW 2mph /  3.2km/h 3mph /  4.8km/h 88% 0in /  0.0mm 18.00 W/m2
15:20 59.2 °F /  15.1 °C 55.9 °F /  13.3 °C 29.3in /  992.8hPa SW 4.9mph /  7.9km/h 6mph /  9.7km/h 89% 0in /  0.0mm 51.00 W/m2
15:25 59.2 °F /  15.1 °C 55.9 °F /  13.3 °C 29.3in /  992.8hPa SSW 8.9mph /  14.3km/h 10mph /  16.1km/h 89% 0in /  0.0mm 56.00 W/m2
15:30 59.2 °F /  15.1 °C 56.3 °F /  13.5 °C 29.3in /  992.8hPa SSW 2.9mph /  4.7km/h 7mph /  11.3km/h 90% 0in /  0.0mm 53.00 W/m2
15:35 59.2 °F /  15.1 °C 56.3 °F /  13.5 °C 29.3in /  992.4hPa SSW 4.9mph /  7.9km/h 9mph /  14.5km/h 90% 0in /  0.0mm 37.00 W/m2
15:40 59.2 °F /  15.1 °C 56.3 °F /  13.5 °C 29.3in /  992.4hPa SW 2.9mph /  4.7km/h 11mph /  17.7km/h 90% 0in /  0.0mm 25.00 W/m2
15:45 59.2 °F /  15.1 °C 56.5 °F /  13.6 °C 29.3in /  992.4hPa SW 4mph /  6.4km/h 4mph /  6.4km/h 91% 0in /  0.0mm 12.00 W/m2
15:50 59.2 °F /  15.1 °C 56.5 °F /  13.6 °C 29.3in /  992.1hPa SSW 6mph /  9.7km/h 9mph /  14.5km/h 91% 0in /  0.0mm 7.00 W/m2
15:55 59 °F /  15.0 °C 56.3 °F /  13.5 °C 29.3in /  992.1hPa SW 4mph /  6.4km/h 10mph /  16.1km/h 91% 0.01in /  0.3mm 7.00 W/m2
16:00 58.8 °F /  14.9 °C 56.1 °F /  13.4 °C 29.3in /  992.1hPa SSW 2mph /  3.2km/h 6mph /  9.7km/h 91% 0.01in /  0.3mm 7.00 W/m2
16:05 58.8 °F /  14.9 °C 56.5 °F /  13.6 °C 29.3in /  991.8hPa SSW 0.9mph /  1.4km/h 7mph /  11.3km/h 92% 0.02in /  0.5mm 16.00 W/m2
16:10 58.8 °F /  14.9 °C 56.5 °F /  13.6 °C 29.3in /  991.8hPa SSW 6mph /  9.7km/h 10mph /  16.1km/h 92% 0.02in /  0.5mm 14.00 W/m2
16:15 58.8 °F /  14.9 °C 56.5 °F /  13.6 °C 29.3in /  991.4hPa SSW 4mph /  6.4km/h 10mph /  16.1km/h 92% 0.02in /  0.5mm 9.00 W/m2
16:20 58.8 °F /  14.9 °C 56.5 °F /  13.6 °C 29.3in /  991.4hPa SSW 4.9mph /  7.9km/h 6mph /  9.7km/h 92% 0.02in /  0.5mm 11.00 W/m2
16:25 58.8 °F /  14.9 °C 56.8 °F /  13.8 °C 29.3in /  991.4hPa SSW 11mph /  17.7km/h 11mph /  17.7km/h 93% 0.02in /  0.5mm 5.00 W/m2
16:30 58.8 °F /  14.9 °C 56.8 °F /  13.8 °C 29.3in /  991.1hPa SSW 12.1mph /  19.5km/h 13mph /  20.9km/h 93% 0.02in /  0.5mm 5.00 W/m2
16:35 59 °F /  15.0 °C 57 °F /  13.9 °C 29.3in /  991.1hPa South 0.9mph /  1.4km/h 12mph /  19.3km/h 93% 0.02in /  0.5mm 0.00 W/m2
16:40 59.2 °F /  15.1 °C 57.2 °F /  14.0 °C 29.3in /  991.1hPa South 4.9mph /  7.9km/h 12mph /  19.3km/h 93% 0.02in /  0.5mm 0.00 W/m2
16:45 59.2 °F /  15.1 °C 57.2 °F /  14.0 °C 29.3in /  990.7hPa SW 4mph /  6.4km/h 11mph /  17.7km/h 93% 0.02in /  0.5mm 0.00 W/m2
16:50 59.2 °F /  15.1 °C 57.2 °F /  14.0 °C 29.3in /  990.7hPa South 4mph /  6.4km/h 9mph /  14.5km/h 93% 0.02in /  0.5mm 0.00 W/m2
16:55 59.2 °F /  15.1 °C 57.2 °F /  14.0 °C 29.3in /  990.7hPa SSW 6.9mph /  11.1km/h 11mph /  17.7km/h 93% 0.02in /  0.5mm 0.00 W/m2
17:00 59.4 °F /  15.2 °C 57.4 °F /  14.1 °C 29.3in /  990.7hPa South 6.9mph /  11.1km/h 8mph /  12.9km/h 93% 0.02in /  0.5mm 0.00 W/m2
17:05 59.4 °F /  15.2 °C 57.4 °F /  14.1 °C 29.3in /  990.7hPa SSW 2.9mph /  4.7km/h 10mph /  16.1km/h 93% 0.01in /  0.3mm 0.00 W/m2
17:10 59.4 °F /  15.2 °C 57.4 °F /  14.1 °C 29.3in /  990.7hPa South 4.9mph /  7.9km/h 9mph /  14.5km/h 93% 0.01in /  0.3mm 0.00 W/m2
17:15 59.4 °F /  15.2 °C 57.4 °F /  14.1 °C 29.2in /  990.4hPa South 12.1mph /  19.5km/h 12mph /  19.3km/h 93% 0.01in /  0.3mm 0.00 W/m2
17:20 59.4 °F /  15.2 °C 57.4 °F /  14.1 °C 29.2in /  990.4hPa SSW 6.9mph /  11.1km/h 7mph /  11.3km/h 93% 0.01in /  0.3mm 0.00 W/m2
17:25 59.4 °F /  15.2 °C 57.4 °F /  14.1 °C 29.2in /  990.1hPa SSW 6.9mph /  11.1km/h 10mph /  16.1km/h 93% 0.01in /  0.3mm 0.00 W/m2
17:30 59.4 °F /  15.2 °C 57.4 °F /  14.1 °C 29.2in /  990.1hPa SW 2.9mph /  4.7km/h 7mph /  11.3km/h 93% 0.01in /  0.3mm 0.00 W/m2
17:35 59.4 °F /  15.2 °C 57.4 °F /  14.1 °C 29.2in /  990.1hPa SSW 2mph /  3.2km/h 7mph /  11.3km/h 93% 0.01in /  0.3mm 0.00 W/m2
17:40 59.4 °F /  15.2 °C 57.4 °F /  14.1 °C 29.2in /  990.1hPa SW 2.9mph /  4.7km/h 11mph /  17.7km/h 93% 0.01in /  0.3mm 0.00 W/m2
17:45 59.4 °F /  15.2 °C 57.4 °F /  14.1 °C 29.2in /  990.1hPa SSW 2mph /  3.2km/h 9mph /  14.5km/h 93% 0in /  0.0mm 0.00 W/m2
17:50 59.4 °F /  15.2 °C 57.4 °F /  14.1 °C 29.2in /  989.7hPa SSW 4mph /  6.4km/h 9mph /  14.5km/h 93% 0in /  0.0mm 0.00 W/m2
17:55 59.4 °F /  15.2 °C 57.4 °F /  14.1 °C 29.2in /  989.7hPa SSW 2mph /  3.2km/h 7mph /  11.3km/h 93% 0in /  0.0mm 0.00 W/m2
18:00 59.4 °F /  15.2 °C 57.4 °F /  14.1 °C 29.2in /  989.7hPa SSW 2.9mph /  4.7km/h 8mph /  12.9km/h 93% 0in /  0.0mm 0.00 W/m2
18:05 59.5 °F /  15.3 °C 57.6 °F /  14.2 °C 29.2in /  989.7hPa South 4mph /  6.4km/h 12mph /  19.3km/h 93% 0in /  0.0mm 0.00 W/m2
18:10 59.5 °F /  15.3 °C 57.6 °F /  14.2 °C 29.2in /  989.4hPa SW 4.9mph /  7.9km/h 13mph /  20.9km/h 93% 0in /  0.0mm 0.00 W/m2
18:15 59.5 °F /  15.3 °C 57.2 °F /  14.0 °C 29.2in /  989.4hPa SSW 4.9mph /  7.9km/h 11mph /  17.7km/h 92% 0in /  0.0mm 0.00 W/m2
18:20 59.5 °F /  15.3 °C 57.2 °F /  14.0 °C 29.2in /  989.4hPa SSW 2mph /  3.2km/h 11mph /  17.7km/h 92% 0in /  0.0mm 0.00 W/m2
18:25 59.5 °F /  15.3 °C 57.2 °F /  14.0 °C 29.2in /  989.4hPa SW 6mph /  9.7km/h 12mph /  19.3km/h 92% 0in /  0.0mm 0.00 W/m2
18:30 59.5 °F /  15.3 °C 57.2 °F /  14.0 °C 29.2in /  989.4hPa SSW 4mph /  6.4km/h 14mph /  22.5km/h 92% 0in /  0.0mm 0.00 W/m2
18:35 59.5 °F /  15.3 °C 57.2 °F /  14.0 °C 29.2in /  989.1hPa WSW 4.9mph /  7.9km/h 10mph /  16.1km/h 92% 0in /  0.0mm 0.00 W/m2
18:40 59.4 °F /  15.2 °C 57 °F /  13.9 °C 29.2in /  989.1hPa SSW 2.9mph /  4.7km/h 10mph /  16.1km/h 92% 0in /  0.0mm 0.00 W/m2
18:45 59.5 °F /  15.3 °C 57.2 °F /  14.0 °C 29.2in /  989.1hPa SSW 2mph /  3.2km/h 12mph /  19.3km/h 92% 0in /  0.0mm 0.00 W/m2
18:50 59.5 °F /  15.3 °C 57.2 °F /  14.0 °C 29.2in /  989.1hPa SSE 6.9mph /  11.1km/h 12mph /  19.3km/h 92% 0in /  0.0mm 0.00 W/m2
18:55 59.5 °F /  15.3 °C 57.2 °F /  14.0 °C 29.2in /  989.1hPa SSW 4.9mph /  7.9km/h 7mph /  11.3km/h 92% 0in /  0.0mm 0.00 W/m2
19:00 59.5 °F /  15.3 °C 57.2 °F /  14.0 °C 29.2in /  989.1hPa SW 8.1mph /  13.0km/h 15mph /  24.1km/h 92% 0in /  0.0mm 0.00 W/m2
19:05 59.5 °F /  15.3 °C 57.2 °F /  14.0 °C 29.2in /  988.7hPa SSE 6.9mph /  11.1km/h 14mph /  22.5km/h 92% 0in /  0.0mm 0.00 W/m2
19:10 59.5 °F /  15.3 °C 57.2 °F /  14.0 °C 29.2in /  988.7hPa Calm   9mph /  14.5km/h 92% 0in /  0.0mm 0.00 W/m2
19:15 59.5 °F /  15.3 °C 57.2 °F /  14.0 °C 29.2in /  988.7hPa SSW 4mph /  6.4km/h 13mph /  20.9km/h 92% 0in /  0.0mm 0.00 W/m2
19:20 59.7 °F /  15.4 °C 57 °F /  13.9 °C 29.2in /  988.4hPa SW 8.1mph /  13.0km/h 11mph /  17.7km/h 91% 0in /  0.0mm 0.00 W/m2
19:25 59.7 °F /  15.4 °C 57 °F /  13.9 °C 29.2in /  988.4hPa SW 6.9mph /  11.1km/h 7mph /  11.3km/h 91% 0in /  0.0mm 0.00 W/m2
19:30 59.9 °F /  15.5 °C 57.2 °F /  14.0 °C 29.2in /  988.0hPa SW 4.9mph /  7.9km/h 8mph /  12.9km/h 91% 0in /  0.0mm 0.00 W/m2
19:35 59.9 °F /  15.5 °C 57.2 °F /  14.0 °C 29.2in /  988.0hPa WSW 11mph /  17.7km/h 11mph /  17.7km/h 91% 0in /  0.0mm 0.00 W/m2
19:40 59.9 °F /  15.5 °C 57 °F /  13.9 °C 29.2in /  988.0hPa WSW 11mph /  17.7km/h 15mph /  24.1km/h 90% 0in /  0.0mm 0.00 W/m2
19:45 60.1 °F /  15.6 °C 57.2 °F /  14.0 °C 29.2in /  988.0hPa SSW 6mph /  9.7km/h 11mph /  17.7km/h 90% 0in /  0.0mm 0.00 W/m2
19:50 59.9 °F /  15.5 °C 57 °F /  13.9 °C 29.2in /  988.0hPa West 4mph /  6.4km/h 10mph /  16.1km/h 90% 0in /  0.0mm 0.00 W/m2
19:55 59.9 °F /  15.5 °C 57 °F /  13.9 °C 29.2in /  988.0hPa SW 8.1mph /  13.0km/h 13mph /  20.9km/h 90% 0in /  0.0mm 0.00 W/m2
20:00 59.7 °F /  15.4 °C 56.8 °F /  13.8 °C 29.2in /  987.7hPa SSW 6mph /  9.7km/h 10mph /  16.1km/h 90% 0in /  0.0mm 0.00 W/m2
20:05 59.7 °F /  15.4 °C 56.5 °F /  13.6 °C 29.2in /  987.7hPa Calm   9mph /  14.5km/h 89% 0in /  0.0mm 0.00 W/m2
20:10 59.7 °F /  15.4 °C 56.5 °F /  13.6 °C 29.2in /  987.4hPa WSW 6.9mph /  11.1km/h 11mph /  17.7km/h 89% 0in /  0.0mm 0.00 W/m2
20:15 59.5 °F /  15.3 °C 56.7 °F /  13.7 °C 29.2in /  987.4hPa South 4mph /  6.4km/h 7mph /  11.3km/h 90% 0in /  0.0mm 0.00 W/m2
20:20 59.4 °F /  15.2 °C 56.5 °F /  13.6 °C 29.2in /  987.4hPa SW 6mph /  9.7km/h 8mph /  12.9km/h 90% 0in /  0.0mm 0.00 W/m2
20:25 59.2 °F /  15.1 °C 56.5 °F /  13.6 °C 29.1in /  987.0hPa SW 4mph /  6.4km/h 7mph /  11.3km/h 91% 0in /  0.0mm 0.00 W/m2
20:30 59.2 °F /  15.1 °C 56.5 °F /  13.6 °C 29.1in /  987.0hPa SW 2mph /  3.2km/h 5mph /  8.0km/h 91% 0in /  0.0mm 0.00 W/m2
20:35 59.2 °F /  15.1 °C 56.5 °F /  13.6 °C 29.1in /  987.0hPa WSW 2.9mph /  4.7km/h 6mph /  9.7km/h 91% 0in /  0.0mm 0.00 W/m2
20:40 59 °F /  15.0 °C 56.3 °F /  13.5 °C 29.1in /  987.0hPa WSW 2.9mph /  4.7km/h 6mph /  9.7km/h 91% 0.01in /  0.3mm 0.00 W/m2
20:45 59 °F /  15.0 °C 56.7 °F /  13.7 °C 29.1in /  987.0hPa WSW 2mph /  3.2km/h 6mph /  9.7km/h 92% 0.01in /  0.3mm 0.00 W/m2
20:50 58.8 °F /  14.9 °C 56.5 °F /  13.6 °C 29.1in /  987.0hPa WSW 8.1mph /  13.0km/h 9mph /  14.5km/h 92% 0.01in /  0.3mm 0.00 W/m2
20:55 58.8 °F /  14.9 °C 56.5 °F /  13.6 °C 29.1in /  986.7hPa WSW 0.9mph /  1.4km/h 7mph /  11.3km/h 92% 0.02in /  0.5mm 0.00 W/m2
21:00 58.8 °F /  14.9 °C 56.5 °F /  13.6 °C 29.1in /  987.0hPa WSW 2.9mph /  4.7km/h 7mph /  11.3km/h 92% 0.02in /  0.5mm 0.00 W/m2
21:05 58.6 °F /  14.8 °C 56.3 °F /  13.5 °C 29.1in /  986.7hPa SW 4mph /  6.4km/h 8mph /  12.9km/h 92% 0.02in /  0.5mm 0.00 W/m2
21:10 58.6 °F /  14.8 °C 56.7 °F /  13.7 °C 29.1in /  986.7hPa WSW 4.9mph /  7.9km/h 8mph /  12.9km/h 93% 0.03in /  0.8mm 0.00 W/m2
21:15 58.6 °F /  14.8 °C 56.7 °F /  13.7 °C 29.1in /  986.7hPa WSW 6.9mph /  11.1km/h 10mph /  16.1km/h 93% 0.03in /  0.8mm 0.00 W/m2
21:20 58.6 °F /  14.8 °C 56.7 °F /  13.7 °C 29.1in /  986.7hPa WSW 2mph /  3.2km/h 6mph /  9.7km/h 93% 0.03in /  0.8mm 0.00 W/m2
21:25 58.5 °F /  14.7 °C 56.5 °F /  13.6 °C 29.1in /  986.7hPa West 4.9mph /  7.9km/h 8mph /  12.9km/h 93% 0.03in /  0.8mm 0.00 W/m2
21:30 58.5 °F /  14.7 °C 56.5 °F /  13.6 °C 29.1in /  986.7hPa WSW 4mph /  6.4km/h 9mph /  14.5km/h 93% 0.03in /  0.8mm 0.00 W/m2
21:35 58.3 °F /  14.6 °C 56.3 °F /  13.5 °C 29.1in /  986.7hPa West 6mph /  9.7km/h 12mph /  19.3km/h 93% 0.03in /  0.8mm 0.00 W/m2
21:40 58.3 °F /  14.6 °C 56.3 °F /  13.5 °C 29.1in /  986.7hPa West 4mph /  6.4km/h 11mph /  17.7km/h 93% 0.02in /  0.5mm 0.00 W/m2
21:45 57.9 °F /  14.4 °C 55.9 °F /  13.3 °C 29.1in /  986.7hPa West 2mph /  3.2km/h 8mph /  12.9km/h 93% 0.02in /  0.5mm 0.00 W/m2
21:50 57.7 °F /  14.3 °C 55.4 °F /  13.0 °C 29.1in /  986.7hPa West 6.9mph /  11.1km/h 16mph /  25.7km/h 92% 0.03in /  0.8mm 0.00 W/m2
21:55 57.6 °F /  14.2 °C 55.2 °F /  12.9 °C 29.1in /  986.7hPa West 4mph /  6.4km/h 12mph /  19.3km/h 92% 0.02in /  0.5mm 0.00 W/m2
22:00 57.4 °F /  14.1 °C 55 °F /  12.8 °C 29.1in /  986.3hPa WNW 12.1mph /  19.5km/h 14mph /  22.5km/h 92% 0.02in /  0.5mm 0.00 W/m2
22:05 57.4 °F /  14.1 °C 54.9 °F /  12.7 °C 29.1in /  986.3hPa West 2.9mph /  4.7km/h 15mph /  24.1km/h 91% 0.02in /  0.5mm 0.00 W/m2
22:10 57.4 °F /  14.1 °C 54.9 °F /  12.7 °C 29.1in /  986.3hPa West 4.9mph /  7.9km/h 10mph /  16.1km/h 91% 0.01in /  0.3mm 0.00 W/m2
22:15 57.4 °F /  14.1 °C 54.9 °F /  12.7 °C 29.1in /  986.3hPa West 4.9mph /  7.9km/h 15mph /  24.1km/h 91% 0.01in /  0.3mm 0.00 W/m2
22:20 57.2 °F /  14.0 °C 54.3 °F /  12.4 °C 29.1in /  986.3hPa West 0.9mph /  1.4km/h 9mph /  14.5km/h 90% 0.01in /  0.3mm 0.00 W/m2
22:25 57.2 °F /  14.0 °C 54.3 °F /  12.4 °C 29.1in /  986.0hPa West 4mph /  6.4km/h 7mph /  11.3km/h 90% 0.01in /  0.3mm 0.00 W/m2
22:30 57 °F /  13.9 °C 54.1 °F /  12.3 °C 29.1in /  986.3hPa SW 4mph /  6.4km/h 10mph /  16.1km/h 90% 0.01in /  0.3mm 0.00 W/m2
22:35 57 °F /  13.9 °C 54.1 °F /  12.3 °C 29.1in /  986.0hPa West 2.9mph /  4.7km/h 10mph /  16.1km/h 90% 0.01in /  0.3mm 0.00 W/m2
22:40 57 °F /  13.9 °C 54.1 °F /  12.3 °C 29.1in /  986.0hPa WSW 2.9mph /  4.7km/h 12mph /  19.3km/h 90% 0.01in /  0.3mm 0.00 W/m2
22:45 57.2 °F /  14.0 °C 54.3 °F /  12.4 °C 29.1in /  986.0hPa WSW 6mph /  9.7km/h 10mph /  16.1km/h 90% 0.01in /  0.3mm 0.00 W/m2
22:50 57.2 °F /  14.0 °C 54 °F /  12.2 °C 29.1in /  986.0hPa West 2.9mph /  4.7km/h 9mph /  14.5km/h 89% 0in /  0.0mm 0.00 W/m2
22:55 57 °F /  13.9 °C 53.8 °F /  12.1 °C 29.1in /  986.3hPa West 6mph /  9.7km/h 10mph /  16.1km/h 89% 0in /  0.0mm 0.00 W/m2
23:00 57 °F /  13.9 °C 53.8 °F /  12.1 °C 29.1in /  986.3hPa WSW 8.9mph /  14.3km/h 15mph /  24.1km/h 89% 0in /  0.0mm 0.00 W/m2
23:05 57 °F /  13.9 °C 53.8 °F /  12.1 °C 29.1in /  986.3hPa West 4.9mph /  7.9km/h 8mph /  12.9km/h 89% 0in /  0.0mm 0.00 W/m2
23:10 57 °F /  13.9 °C 53.8 °F /  12.1 °C 29.1in /  986.3hPa WSW 4.9mph /  7.9km/h 6mph /  9.7km/h 89% 0in /  0.0mm 0.00 W/m2
23:15 56.8 °F /  13.8 °C 53.6 °F /  12.0 °C 29.1in /  986.0hPa West 4.9mph /  7.9km/h 12mph /  19.3km/h 89% 0in /  0.0mm 0.00 W/m2
23:20 56.7 °F /  13.7 °C 53.4 °F /  11.9 °C 29.1in /  986.0hPa WSW 2.9mph /  4.7km/h 8mph /  12.9km/h 89% 0in /  0.0mm 0.00 W/m2
23:25 56.5 °F /  13.6 °C 53.6 °F /  12.0 °C 29.1in /  986.0hPa SW 6mph /  9.7km/h 11mph /  17.7km/h 90% 0in /  0.0mm 0.00 W/m2
23:30 56.3 °F /  13.5 °C 53.4 °F /  11.9 °C 29.1in /  986.0hPa WSW 10.1mph /  16.3km/h 13mph /  20.9km/h 90% 0in /  0.0mm 0.00 W/m2
23:35 56.1 °F /  13.4 °C 53.2 °F /  11.8 °C 29.1in /  986.0hPa SW 6.9mph /  11.1km/h 12mph /  19.3km/h 90% 0in /  0.0mm 0.00 W/m2
23:40 56.1 °F /  13.4 °C 53.2 °F /  11.8 °C 29.1in /  986.0hPa West 11mph /  17.7km/h 13mph /  20.9km/h 90% 0in /  0.0mm 0.00 W/m2
23:45 56.1 °F /  13.4 °C 53.6 °F /  12.0 °C 29.1in /  986.0hPa West 8.1mph /  13.0km/h 13mph /  20.9km/h 91% 0in /  0.0mm 0.00 W/m2
23:50 56.1 °F /  13.4 °C 53.6 °F /  12.0 °C 29.1in /  985.7hPa West 4.9mph /  7.9km/h 9mph /  14.5km/h 91% 0in /  0.0mm 0.00 W/m2
23:55 55.9 °F /  13.3 °C 53.4 °F /  11.9 °C 29.1in /  986.0hPa West 8.9mph /  14.3km/h 11mph /  17.7km/h 91% 0in /  0.0mm 0.00 W/m2